Time;durP1;ratioP1;P1;durP2;ratioP2;P2;SDS_P1;SDS_P2;PMS_P1;PMS_P2;Temp;Humidity;BMP_temperature;BMP_pressure;BME280_temperature;BME280_humidity;BME280_pressure;Samples;Min_cycle;Max_cycle;Signal;HPM_P1;HPM_P2
2024/04/20 00:06:08;;;;;;;0.00;0.00;;;;;;;8.47;77.76;101202.69;5103157;27;20636;-79
2024/04/20 00:09:00;;;;;;;0.03;0.03;;;;;;;8.23;78.22;101185.41;5083218;27;20034;-78
2024/04/20 00:11:59;;;;;;;;;;;;;;;;;;;;;
2024/04/20 00:18:02;;;;;;;0.00;0.00;;;;;;;7.60;80.59;101159.44;5148740;27;20012;-79
2024/04/20 00:21:28;;;;;;;0.00;0.00;;;;;;;7.59;80.85;101174.09;5183320;27;19994;-77
2024/04/20 00:24:31;;;;;;;0.00;0.00;;;;;;;7.77;81.85;101225.81;5125367;27;20081;-78
2024/04/20 00:31:01;;;;;;;0.00;0.00;;;;;;;7.55;83.26;101186.50;5111742;27;20017;-79
2024/04/20 00:34:38;;;;;;;;;;;;;;;;;;;;;
2024/04/20 00:37:34;;;;;;;0.00;0.00;;;;;;;7.47;83.33;101188.44;4955547;28;20017;-78
2024/04/20 00:40:14;;;;;;;0.00;0.00;;;;;;;7.75;82.68;101206.13;4884299;28;20017;-79
2024/04/20 00:42:40;;;;;;;0.10;0.10;;;;;;;7.85;82.83;101209.16;5004403;28;20003;-77
2024/04/20 00:45:08;;;;;;;0.00;0.00;;;;;;;8.02;81.91;101233.88;5042071;28;20005;-77
2024/04/20 00:47:39;;;;;;;0.00;0.00;;;;;;;8.18;81.93;101229.69;5169695;27;20053;-77
2024/04/20 00:50:07;;;;;;;0.00;0.00;;;;;;;8.55;81.02;101251.41;5150731;27;20009;-77
2024/04/20 00:52:32;;;;;;;0.00;0.00;;;;;;;8.46;79.95;101222.00;5227907;27;20026;-78
2024/04/20 00:54:59;;;;;;;0.00;0.00;;;;;;;8.54;79.42;101222.50;5257478;27;20476;-77
2024/04/20 00:58:08;;;;;;;;;;;;;;;;;;;;;
2024/04/20 01:01:17;;;;;;;;;;;;;;;;;;;;;
2024/04/20 01:03:59;;;;;;;0.08;0.08;;;;;;;8.70;77.63;101255.59;5173737;27;20000;-80
2024/04/20 01:06:59;;;;;;;0.08;0.08;;;;;;;8.34;76.85;101216.50;5262222;27;20013;-78
2024/04/20 01:09:25;;;;;;;0.00;0.00;;;;;;;8.12;76.22;101227.91;5264384;27;20003;-77
2024/04/20 01:11:51;;;;;;;0.00;0.00;;;;;;;8.14;76.18;101272.06;5228221;27;20099;-78
2024/04/20 01:14:16;;;;;;;0.00;0.00;;;;;;;7.80;75.32;101260.75;5255937;27;20017;-77
2024/04/20 01:17:04;;;;;;;0.00;0.00;;;;;;;7.44;75.31;101246.06;5270356;27;20003;-78
2024/04/20 01:19:30;;;;;;;0.00;0.00;;;;;;;7.33;74.91;101254.97;5254061;27;20002;-78
2024/04/20 01:21:58;;;;;;;0.00;0.00;;;;;;;7.18;74.55;101255.31;5247122;27;20441;-77
2024/04/20 01:24:35;;;;;;;;;;;;;;;;;;;;;
2024/04/20 01:27:44;;;;;;;;;;;;;;;;;;;;;
2024/04/20 01:30:16;;;;;;;0.00;0.00;;;;;;;6.54;73.36;101260.81;5261850;27;20055;-77
2024/04/20 01:32:42;;;;;;;0.00;0.00;;;;;;;6.53;72.97;101286.31;5232754;27;20063;-78
2024/04/20 01:35:20;;;;;;;;;;;;;;;;;;;;;
2024/04/20 01:38:07;;;;;;;;;;;;;;;;;;;;;
2024/04/20 01:40:37;;;;;;;0.10;0.10;;;;;;;6.10;70.74;101276.94;5261562;27;20006;-78
2024/04/20 01:43:03;;;;;;;0.10;0.10;;;;;;;5.89;70.65;101250.03;5228403;27;19995;-78
2024/04/20 01:45:29;;;;;;;0.00;0.00;;;;;;;5.86;70.80;101259.44;5226852;27;20063;-78
2024/04/20 01:48:22;;;;;;;0.00;0.00;;;;;;;5.88;70.33;101261.94;5240404;27;20026;-78
2024/04/20 01:50:47;;;;;;;0.00;0.00;;;;;;;5.97;69.84;101282.41;5247119;27;20002;-78
2024/04/20 01:53:19;;;;;;;0.00;0.00;;;;;;;6.09;69.08;101286.13;5263432;27;20006;-78
2024/04/20 01:56:27;;;;;;;0.00;0.00;;;;;;;6.33;68.20;101324.47;5259917;27;20006;-78
2024/04/20 01:59:02;;;;;;;0.10;0.10;;;;;;;6.15;67.48;101289.00;5209863;27;20015;-78
2024/04/20 02:01:41;;;;;;;;;;;;;;;;;;;;;
2024/04/20 02:08:15;;;;;;;;;;;;;;;;;;;;;
2024/04/20 02:10:47;;;;;;;0.00;0.00;;;;;;;6.35;65.11;101333.25;5278248;27;20002;-79
2024/04/20 02:13:23;;;;;;;;;;;;;;;;;;;;;
2024/04/20 02:15:53;;;;;;;0.10;0.10;;;;;;;5.95;65.26;101292.63;5249407;27;20017;-79
2024/04/20 02:18:42;;;;;;;0.10;0.10;;;;;;;5.80;65.30;101282.03;5281300;27;20010;-79
2024/04/20 02:21:21;;;;;;;0.00;0.00;;;;;;;5.92;65.17;101328.34;5273941;27;20006;-78
2024/04/20 02:23:51;;;;;;;0.00;0.00;;;;;;;5.77;65.60;101334.00;5260016;27;20002;-80
2024/04/20 02:26:57;;;;;;;0.10;0.10;;;;;;;5.44;66.04;101317.78;5248424;27;20017;-78
2024/04/20 02:29:48;;;;;;;;;;;;;;;;;;;;;
2024/04/20 02:32:35;;;;;;;0.00;0.00;;;;;;;4.86;66.91;101309.22;5262717;26;20005;-80
2024/04/20 02:35:00;;;;;;;0.00;0.00;;;;;;;4.71;67.40;101320.22;5245086;27;20003;-78
2024/04/20 02:37:30;;;;;;;0.00;0.00;;;;;;;4.63;67.75;101331.25;5230910;27;20014;-79
2024/04/20 02:40:14;;;;;;;0.00;0.00;;;;;;;4.30;67.83;101302.19;5193074;27;20011;-79
2024/04/20 02:42:49;;;;;;;;;;;;;;;;;;;;;
2024/04/20 02:45:25;;;;;;;0.10;0.10;;;;;;;4.24;68.62;101335.50;5264880;27;20014;-79
2024/04/20 02:47:53;;;;;;;0.00;0.00;;;;;;;4.10;69.04;101340.00;5253318;27;20006;-79
2024/04/20 02:50:54;;;;;;;;;;;;;;;;;;;;;
2024/04/20 02:53:20;;;;;;;0.00;0.00;;;;;;;3.69;69.45;101318.34;5237745;27;20014;-80
2024/04/20 02:55:46;;;;;;;0.10;0.10;;;;;;;3.73;69.60;101342.09;5242487;27;20444;-80
2024/04/20 02:58:48;;;;;;;0.10;0.10;;;;;;;3.75;69.77;101361.69;5239266;27;19998;-81
2024/04/20 03:01:23;;;;;;;0.10;0.10;;;;;;;3.46;69.98;101332.94;5221312;27;20003;-80
2024/04/20 03:03:48;;;;;;;0.00;0.00;;;;;;;3.47;70.25;101342.72;5239559;27;20007;-80
2024/04/20 03:06:39;;;;;;;0.10;0.10;;;;;;;3.64;69.79;101386.56;5242657;27;20007;-80
2024/04/20 03:09:08;;;;;;;0.10;0.10;;;;;;;3.58;70.13;101388.19;5235250;27;20002;-79
2024/04/20 03:11:43;;;;;;;0.00;0.00;;;;;;;3.35;69.86;101355.13;5218557;27;19995;-78
2024/04/20 03:14:09;;;;;;;0.00;0.00;;;;;;;3.54;69.82;101392.31;5257946;27;20014;-77
2024/04/20 03:16:34;;;;;;;0.10;0.10;;;;;;;3.44;69.37;101389.09;5252302;27;20002;-79
2024/04/20 03:19:00;;;;;;;0.00;0.00;;;;;;;3.38;69.35;101387.19;5223279;27;20349;-77
2024/04/20 03:21:25;;;;;;;0.00;0.00;;;;;;;3.32;69.08;101383.38;5240559;27;20002;-77
2024/04/20 03:23:51;;;;;;;0.10;0.10;;;;;;;3.29;69.01;101384.59;5218200;27;20003;-78
2024/04/20 03:26:16;;;;;;;0.10;0.10;;;;;;;3.28;68.98;101393.72;5219987;27;20002;-78
2024/04/20 03:28:42;;;;;;;0.10;0.10;;;;;;;3.22;68.72;101393.69;5237682;27;20014;-77
2024/04/20 03:31:18;;;;;;;0.10;0.10;;;;;;;2.99;68.88;101366.84;5221917;27;20445;-77
2024/04/20 03:33:45;;;;;;;0.00;0.00;;;;;;;2.91;68.82;101368.66;5217894;27;19999;-78
2024/04/20 03:36:17;;;;;;;0.00;0.00;;;;;;;2.96;68.67;101395.94;5241311;27;23032;-77
2024/04/20 03:38:55;;;;;;;0.00;0.00;;;;;;;2.91;68.93;101398.38;5219588;27;20017;-77
2024/04/20 03:41:23;;;;;;;0.00;0.00;;;;;;;2.74;68.99;101386.13;5217228;27;20006;-77
2024/04/20 03:44:06;;;;;;;0.00;0.00;;;;;;;2.66;68.97;101381.69;5239160;27;20003;-77
2024/04/20 03:46:49;;;;;;;0.00;0.00;;;;;;;2.64;68.96;101385.59;5241642;27;20003;-77
2024/04/20 03:49:14;;;;;;;0.00;0.00;;;;;;;2.54;69.08;101378.63;5237776;27;19999;-77
2024/04/20 03:51:40;;;;;;;0.10;0.10;;;;;;;2.65;69.03;101403.47;5223069;27;19998;-77
2024/04/20 03:54:08;;;;;;;0.00;0.00;;;;;;;2.50;69.05;101390.84;5288763;27;20002;-78
2024/04/20 03:56:36;;;;;;;0.00;0.00;;;;;;;2.67;69.04;101431.13;5256985;27;20014;-77
2024/04/20 03:59:02;;;;;;;0.10;0.10;;;;;;;2.66;69.18;101435.69;5229225;27;20006;-78
2024/04/20 04:01:30;;;;;;;0.00;0.00;;;;;;;2.42;69.03;101407.13;5207026;27;20007;-77
2024/04/20 04:03:56;;;;;;;0.00;0.00;;;;;;;2.60;68.96;101439.16;5241367;27;20013;-77
2024/04/20 04:06:24;;;;;;;0.10;0.10;;;;;;;2.23;69.08;101384.25;5250603;27;20002;-77
2024/04/20 04:09:17;;;;;;;;;;;;;;;;;;;;;
2024/04/20 04:11:46;;;;;;;0.10;0.10;;;;;;;2.22;69.51;101407.72;5271078;27;19999;-79
2024/04/20 04:14:11;;;;;;;0.10;0.10;;;;;;;2.41;69.75;101448.63;5241693;27;20007;-78
2024/04/20 04:16:37;;;;;;;0.00;0.00;;;;;;;2.04;69.87;101393.75;5250007;27;20386;-77
2024/04/20 04:19:02;;;;;;;0.10;0.10;;;;;;;2.04;70.10;101407.25;5247434;27;20007;-78
2024/04/20 04:21:40;;;;;;;;;;;;;;;;;;;;;
2024/04/20 04:24:06;;;;;;;0.00;0.00;;;;;;;2.08;69.83;101428.25;5265070;27;19998;-79
2024/04/20 04:29:40;;;;;;;0.10;0.10;;;;;;;2.00;69.95;101424.81;5271842;27;20441;-78
2024/04/20 04:32:07;;;;;;;0.00;0.00;;;;;;;2.20;69.84;101466.41;5245254;27;19999;-78
2024/04/20 04:34:56;;;;;;;0.10;0.10;;;;;;;2.17;69.50;101460.56;5244069;27;20738;-78
2024/04/20 04:37:34;;;;;;;;;;;;;;;;;;;;;
2024/04/20 04:40:00;;;;;;;0.00;0.00;;;;;;;2.01;69.62;101438.13;5272524;27;20054;-78
2024/04/20 04:42:36;;;;;;;;;;;;;;;;;;;;;
2024/04/20 04:45:03;;;;;;;0.00;0.00;;;;;;;2.17;69.42;101472.19;5264645;27;20018;-78
2024/04/20 04:47:31;;;;;;;0.00;0.00;;;;;;;2.07;69.54;101450.03;5268406;27;20002;-78
2024/04/20 04:50:08;;;;;;;0.00;0.00;;;;;;;2.11;69.50;101461.31;5271779;27;20003;-78
2024/04/20 04:52:36;;;;;;;0.10;0.10;;;;;;;1.95;69.39;101440.72;5248102;27;20457;-78
2024/04/20 04:55:02;;;;;;;0.10;0.10;;;;;;;1.76;69.72;101409.72;5245033;27;20009;-78
2024/04/20 04:57:30;;;;;;;0.10;0.10;;;;;;;2.17;69.92;101482.97;5223991;27;19999;-77
2024/04/20 05:00:23;;;;;;;0.00;0.00;;;;;;;1.78;69.37;101418.47;5258333;27;20113;-77
2024/04/20 05:02:56;;;;;;;0.10;0.10;;;;;;;1.83;69.51;101435.78;5278986;27;20002;-77
2024/04/20 05:05:24;;;;;;;0.10;0.10;;;;;;;1.87;69.69;101455.97;5247630;27;20006;-78
2024/04/20 05:08:17;;;;;;;;;;;;;;;;;;;;;
2024/04/20 05:10:56;;;;;;;0.00;0.00;;;;;;;2.08;70.47;101500.28;5266906;27;20002;-77
2024/04/20 05:13:21;;;;;;;0.00;0.00;;;;;;;1.86;70.51;101464.25;5244127;27;19999;-77
2024/04/20 05:15:49;;;;;;;0.10;0.10;;;;;;;1.91;70.39;101478.88;5246801;27;20076;-78
2024/04/20 05:18:18;;;;;;;0.00;0.00;;;;;;;1.81;70.76;101455.84;5248486;27;20017;-77
2024/04/20 05:20:49;;;;;;;0.00;0.00;;;;;;;1.77;70.56;101444.59;5245578;27;20007;-76
2024/04/20 05:23:42;;;;;;;;;;;;;;;;;;;;;
2024/04/20 05:26:23;;;;;;;;;;;;;;;;;;;;;
2024/04/20 05:31:55;;;;;;;0.10;0.10;;;;;;;2.16;70.33;101497.53;5217299;27;20014;-78
2024/04/20 05:37:53;;;;;;;0.10;0.10;;;;;;;2.23;70.66;101498.47;5243834;27;20105;-78
2024/04/20 05:43:22;;;;;;;0.10;0.10;;;;;;;2.38;70.02;101494.91;5156031;27;20016;-79
2024/04/20 05:57:31;;;;;;;;;;;;;;;;;;;;;
2024/04/20 06:03:58;;;;;;;;;;;;;;;;;;;;;
2024/04/20 06:19:00;;;;;;;;;;;;;;;;;;;;;
2024/04/20 06:37:25;;;;;;;;;;;;;;;;;;;;;
2024/04/20 09:17:56;;;;;;;;;;;;;;;;;;;;;
2024/04/20 09:28:39;;;;;;;0.00;0.00;;;;;;;32.32;20.95;101647.44;5320362;26;20005;-79
2024/04/20 10:42:35;;;;;;;0.00;0.00;;;;;;;43.87;9.58;101643.59;5110733;27;20116;-76
2024/04/20 10:56:54;;;;;;;0.00;0.00;;;;;;;45.24;8.42;101609.09;4907837;29;20026;-75
2024/04/20 11:20:49;;;;;;;0.00;0.00;;;;;;;47.50;7.57;101618.63;4821642;29;20062;-75
2024/04/20 11:24:30;;;;;;;;;;;;;;;;;;;;;
2024/04/20 11:45:38;;;;;;;;;;;;;;;;;;;;;
2024/04/20 11:58:43;;;;;;;;;;;;;;;;;;;;;
2024/04/20 12:01:42;;;;;;;0.00;0.00;;;;;;;49.96;6.86;101611.41;5077847;28;20007;-78
2024/04/20 12:04:11;;;;;;;0.00;0.00;;;;;;;49.40;7.12;101594.22;5142229;27;20007;-76
2024/04/20 12:07:36;;;;;;;;;;;;;;;;;;;;;
2024/04/20 12:10:22;;;;;;;0.00;0.00;;;;;;;49.95;6.95;101589.47;5252332;27;20628;-74
2024/04/20 12:33:35;;;;;;;0.00;0.00;;;;;;;46.97;7.97;101592.06;6249977;21;20021;-76
2024/04/20 12:36:03;;;;;;;0.00;0.00;;;;;;;48.49;7.31;101592.34;5306306;26;20013;-76
2024/04/20 12:38:44;;;;;;;0.00;0.00;;;;;;;47.77;7.83;101600.19;5261060;26;20030;-76
2024/04/20 12:41:33;;;;;;;0.00;0.00;;;;;;;45.37;8.50;101611.78;5245552;26;20003;-76
2024/04/20 12:44:15;;;;;;;;;;;;;;;;;;;;;
2024/04/20 12:46:52;;;;;;;0.00;0.00;;;;;;;44.95;7.83;101581.50;5305658;26;20003;-75
2024/04/20 12:49:20;;;;;;;0.00;0.00;;;;;;;45.19;8.98;101589.53;5260054;27;20005;-76
2024/04/20 12:52:07;;;;;;;0.00;0.00;;;;;;;47.85;8.06;101623.75;5303770;26;20013;-76
2024/04/20 12:55:03;;;;;;;0.00;0.00;;;;;;;49.67;7.05;101601.63;5278793;27;20033;-75
2024/04/20 12:57:36;;;;;;;0.00;0.00;;;;;;;52.16;6.60;101596.72;5222028;26;20001;-77
2024/04/20 13:00:01;;;;;;;0.00;0.00;;;;;;;53.93;5.51;101617.03;5297970;26;20335;-76
2024/04/20 13:02:27;;;;;;;0.00;0.00;;;;;;;53.13;5.48;101608.88;5258131;26;20016;-74
2024/04/20 13:05:12;;;;;;;0.00;0.00;;;;;;;52.51;6.02;101598.22;5303848;26;20091;-76
2024/04/20 13:07:47;;;;;;;0.00;0.00;;;;;;;53.65;5.51;101615.91;5216138;26;19998;-75
2024/04/20 13:10:15;;;;;;;0.00;0.00;;;;;;;51.97;4.95;101578.19;5255204;27;20077;-74
2024/04/20 13:12:40;;;;;;;0.00;0.00;;;;;;;49.13;6.42;101576.00;5293832;26;20005;-75
2024/04/20 13:15:09;;;;;;;0.00;0.00;;;;;;;50.16;6.44;101592.25;5280614;26;20044;-74
2024/04/20 13:18:06;;;;;;;0.00;0.00;;;;;;;50.47;5.47;101580.53;5280127;26;20000;-76
2024/04/20 13:20:35;;;;;;;0.00;0.00;;;;;;;49.51;5.99;101564.50;5303711;26;20345;-73
2024/04/20 13:23:06;;;;;;;0.00;0.00;;;;;;;47.22;7.21;101595.72;5251247;26;20027;-75
2024/04/20 13:25:52;;;;;;;0.00;0.00;;;;;;;45.41;7.08;101574.13;5273604;26;20014;-74
2024/04/20 13:28:32;;;;;;;;;;;;;;;;;;;;;
2024/04/20 13:31:01;;;;;;;0.00;0.00;;;;;;;46.00;7.84;101565.97;5300336;26;20015;-76
2024/04/20 13:33:46;;;;;;;0.00;0.00;;;;;;;48.24;7.25;101583.00;5269436;26;20014;-75
2024/04/20 13:36:12;;;;;;;0.00;0.00;;;;;;;48.77;6.60;101597.72;5283096;26;20001;-75
2024/04/20 13:38:37;;;;;;;0.00;0.00;;;;;;;49.56;6.22;101595.72;5305548;26;20012;-75
2024/04/20 13:41:09;;;;;;;0.00;0.00;;;;;;;46.72;6.20;101573.13;5279397;26;20017;-75
2024/04/20 13:43:35;;;;;;;0.00;0.00;;;;;;;41.47;8.64;101590.72;5310564;26;20462;-74
2024/04/20 13:46:10;;;;;;;0.00;0.00;;;;;;;39.83;9.80;101584.97;5230859;26;20016;-74
2024/04/20 13:48:57;;;;;;;0.00;0.00;;;;;;;37.04;12.11;101582.66;5276629;26;20017;-77
2024/04/20 13:51:28;;;;;;;0.00;0.00;;;;;;;36.81;12.31;101591.03;5260947;26;20013;-76
2024/04/20 13:53:56;;;;;;;0.00;0.00;;;;;;;40.97;11.54;101564.22;5243087;26;20079;-77
2024/04/20 13:56:45;;;;;;;0.00;0.00;;;;;;;45.51;9.60;101574.94;5257738;26;20002;-78
2024/04/20 15:02:34;;;;;;;0.00;0.00;;;;;;;45.58;8.30;101505.28;6168100;21;20228;-75
2024/04/20 15:08:35;;;;;;;0.00;0.00;;;;;;;42.42;7.59;101500.38;5285945;26;20081;-76
2024/04/20 15:26:51;;;;;;;0.00;0.00;;;;;;;34.99;11.23;101543.09;5240244;27;20018;-75
2024/04/20 16:40:23;;;;;;;0.00;0.00;;;;;;;35.08;12.22;101518.72;5251425;24;20008;-75
2024/04/20 16:42:51;;;;;;;0.00;0.00;;;;;;;34.36;13.02;101517.94;5307699;26;20081;-76
2024/04/20 16:46:16;;;;;;;;;;;;;;;;;;;;;
2024/04/20 16:49:01;;;;;;;;;;;;;;;;;;;;;
2024/04/20 16:52:25;;;;;;;0.00;0.00;;;;;;;33.62;12.70;101525.84;5309807;26;20001;-74
2024/04/20 16:54:58;;;;;;;0.00;0.00;;;;;;;32.33;13.60;101486.94;5118983;27;20012;-76
2024/04/20 16:57:42;;;;;;;0.00;0.00;;;;;;;32.62;13.88;101509.81;5296282;26;20070;-77
2024/04/20 17:00:28;;;;;;;0.00;0.00;;;;;;;31.35;14.31;101490.66;5312775;26;19993;-77
2024/04/20 17:02:56;;;;;;;0.00;0.00;;;;;;;29.00;15.17;101525.00;5282581;26;20008;-77
2024/04/20 17:05:22;;;;;;;0.00;0.00;;;;;;;27.77;16.54;101514.50;5253799;26;19987;-76
2024/04/20 17:07:47;;;;;;;0.00;0.00;;;;;;;28.09;16.71;101517.44;5278717;27;20053;-77
2024/04/20 17:14:06;;;;;;;;;;;;;;;;;;;;;
2024/04/20 17:17:10;;;;;;;0.00;0.00;;;;;;;29.94;16.23;101485.56;5305819;26;19997;-77
2024/04/20 17:19:48;;;;;;;0.00;0.00;;;;;;;30.53;16.08;101519.28;5305752;26;21150;-78
2024/04/20 17:23:10;;;;;;;0.00;0.00;;;;;;;30.72;16.43;101511.91;5276502;26;20008;-76
2024/04/20 17:26:04;;;;;;;;;;;;;;;;;;;;;
2024/04/20 17:28:59;;;;;;;0.00;0.00;;;;;;;28.50;16.83;101524.56;5338753;26;20008;-76
2024/04/20 17:36:04;;;;;;;0.00;0.00;;;;;;;25.73;18.20;101470.97;5270137;26;20006;-77
2024/04/20 17:45:42;;;;;;;0.00;0.00;;;;;;;22.96;21.23;101527.06;4973616;28;20024;-76
2024/04/20 19:04:27;;;;;;;0.00;0.00;;;;;;;12.33;31.08;101486.69;5278812;26;20476;-76
2024/04/20 19:06:52;;;;;;;0.00;0.00;;;;;;;12.42;31.40;101538.38;5308010;26;20727;-77
2024/04/20 19:12:48;;;;;;;0.00;0.00;;;;;;;12.11;31.81;101554.34;5306644;26;20065;-77
2024/04/20 19:19:25;;;;;;;;;;;;;;;;;;;;;
2024/04/20 19:22:11;;;;;;;0.00;0.00;;;;;;;11.17;32.97;101523.59;5122640;27;20005;-77
2024/04/20 19:35:43;;;;;;;0.00;0.00;;;;;;;10.82;34.18;101576.50;5045080;28;20310;-76
2024/04/20 19:38:41;;;;;;;;;;;;;;;;;;;;;
2024/04/20 20:02:57;;;;;;;0.10;0.10;;;;;;;9.93;37.18;101596.47;5042331;28;20510;-77
2024/04/20 20:22:26;;;;;;;0.10;0.10;;;;;;;8.86;38.83;101554.16;5035395;28;20021;-77
2024/04/20 20:34:58;;;;;;;0.10;0.10;;;;;;;8.97;40.27;101604.41;5032998;28;20028;-78
2024/04/20 20:37:38;;;;;;;;;;;;;;;;;;;;;
2024/04/20 20:44:27;;;;;;;0.00;0.00;;;;;;;8.83;41.10;101626.34;4908268;29;20009;-73
2024/04/20 20:47:05;;;;;;;0.10;0.10;;;;;;;8.56;41.01;101610.25;4952033;28;20475;-75
2024/04/20 20:49:56;;;;;;;0.00;0.00;;;;;;;8.52;41.85;101619.91;5019291;28;20042;-76
2024/04/20 20:52:48;;;;;;;0.00;0.00;;;;;;;8.47;42.01;101632.53;5044782;28;20094;-75
2024/04/20 20:59:09;;;;;;;0.00;0.00;;;;;;;8.43;42.39;101632.13;4979438;28;20037;-74
2024/04/20 21:08:52;;;;;;;0.00;0.00;;;;;;;8.68;43.24;101634.88;5061048;27;20085;-74
2024/04/20 21:11:59;;;;;;;;;;;;;;;;;;;;;
2024/04/20 21:49:52;;;;;;;;;;;;;;;;;;;;;
2024/04/20 21:55:55;;;;;;;0.00;0.00;;;;;;;8.60;44.86;101645.25;4918794;29;20002;-74
2024/04/20 21:58:50;;;;;;;0.10;0.10;;;;;;;8.60;45.39;101654.28;4914037;28;20359;-75
2024/04/20 22:05:40;;;;;;;;;;;;;;;;;;;;;
2024/04/20 22:08:21;;;;;;;0.10;0.10;;;;;;;7.89;45.82;101588.09;5037805;28;20681;-74
2024/04/20 22:14:30;;;;;;;0.00;0.00;;;;;;;8.02;46.92;101641.66;4949119;28;20089;-75
2024/04/20 22:16:55;;;;;;;0.00;0.00;;;;;;;8.14;47.10;101653.50;5013702;28;20011;-76
2024/04/20 22:20:22;;;;;;;0.00;0.00;;;;;;;8.03;47.29;101633.28;5016559;28;21110;-75
2024/04/20 22:41:13;;;;;;;;;;;;;;;7.30;53.30;101649.94;4971235;28;19995;-76
2024/04/20 22:43:59;;;;;;;0.10;0.10;;;;;;;7.00;54.92;101628.69;4919208;29;19953;-74
2024/04/20 22:46:35;;;;;;;;;;;;;;;;;;;;;
2024/04/20 22:49:05;;;;;;;0.10;0.10;;;;;;;6.97;55.63;101653.59;4989410;28;20004;-75
2024/04/20 22:51:31;;;;;;;0.00;0.00;;;;;;;6.93;55.19;101645.00;4990833;28;20004;-75
2024/04/20 22:53:56;;;;;;;0.10;0.10;;;;;;;6.52;55.18;101588.19;4968422;28;20031;-75
2024/04/20 22:56:22;;;;;;;0.00;0.00;;;;;;;6.77;55.32;101627.25;4988493;28;20011;-76
2024/04/20 22:59:07;;;;;;;0.00;0.00;;;;;;;6.69;56.20;101622.03;4985223;28;20063;-76
2024/04/20 23:01:42;;;;;;;0.10;0.10;;;;;;;6.34;56.36;101570.66;5123511;27;20033;-77
2024/04/20 23:04:17;;;;;;;0.00;0.00;;;;;;;6.60;56.33;101631.44;5121353;27;20019;-74
2024/04/20 23:06:42;;;;;;;0.00;0.00;;;;;;;6.58;56.38;101614.53;5176061;27;20038;-75
2024/04/20 23:09:15;;;;;;;0.00;0.00;;;;;;;6.46;56.45;101611.59;5269948;27;20010;-74
2024/04/20 23:12:08;;;;;;;0.00;0.00;;;;;;;6.54;56.24;101626.84;5300110;27;20316;-75
2024/04/20 23:14:33;;;;;;;0.00;0.00;;;;;;;6.40;56.56;101613.28;5339313;26;20046;-73
2024/04/20 23:16:59;;;;;;;0.00;0.00;;;;;;;6.44;56.68;101625.41;5343974;26;20009;-75
2024/04/20 23:19:29;;;;;;;0.00;0.00;;;;;;;6.43;56.60;101634.59;5305535;26;20045;-76
2024/04/20 23:21:58;;;;;;;0.00;0.00;;;;;;;6.24;56.54;101609.09;5285750;26;20001;-74
2024/04/20 23:24:23;;;;;;;0.10;0.10;;;;;;;6.27;56.69;101614.09;5338452;26;20009;-75
2024/04/20 23:26:49;;;;;;;0.00;0.00;;;;;;;6.21;56.56;101619.53;5298265;26;20505;-76
2024/04/20 23:29:16;;;;;;;0.00;0.00;;;;;;;6.08;56.74;101604.06;5300946;26;20450;-74
2024/04/20 23:31:44;;;;;;;0.00;0.00;;;;;;;6.15;56.80;101623.06;5309248;26;20028;-75
2024/04/20 23:34:10;;;;;;;0.10;0.10;;;;;;;6.10;56.99;101619.13;5286131;26;20019;-74
2024/04/20 23:36:35;;;;;;;0.00;0.00;;;;;;;6.07;56.85;101633.09;5278925;26;19997;-75
2024/04/20 23:39:08;;;;;;;0.00;0.00;;;;;;;5.83;56.91;101601.09;5268873;26;20013;-74
2024/04/20 23:41:41;;;;;;;0.10;0.10;;;;;;;5.88;57.22;101609.44;5338881;26;20012;-74
2024/04/20 23:44:19;;;;;;;0.05;0.05;;;;;;;5.83;57.22;101617.38;5293613;26;20077;-74
2024/04/20 23:46:45;;;;;;;0.00;0.00;;;;;;;5.89;57.74;101630.94;5249409;26;20057;-74
2024/04/20 23:49:13;;;;;;;0.00;0.00;;;;;;;5.92;57.83;101643.28;5311648;26;20016;-75
2024/04/20 23:51:38;;;;;;;0.10;0.10;;;;;;;5.69;57.99;101611.06;5310107;26;20011;-73
2024/04/20 23:54:15;;;;;;;0.00;0.00;;;;;;;5.68;58.44;101615.66;5306125;26;20009;-75
2024/04/20 23:57:06;;;;;;;0.00;0.00;;;;;;;5.80;58.59;101631.31;5288977;26;19997;-73
2024/04/20 23:59:41;;;;;;;;;;;;;;;;;;;;;
